createdAt,value
2023-11-12T00:00:50.801Z,22.70
2023-11-12T00:03:19.813Z,23.40
2023-11-12T00:05:47.837Z,22.17
2023-11-12T00:08:19.257Z,21.90
2023-11-12T00:10:48.409Z,24.03
2023-11-12T00:13:16.982Z,23.23
2023-11-12T00:15:45.134Z,24.43
2023-11-12T00:18:13.308Z,21.30
2023-11-12T00:20:41.271Z,21.83
2023-11-12T00:23:10.110Z,23.63
2023-11-12T00:25:43.011Z,25.17
2023-11-12T00:28:11.035Z,24.07
2023-11-12T00:30:39.097Z,24.43
2023-11-12T00:33:07.602Z,27.03
2023-11-12T00:35:35.488Z,28.07
2023-11-12T00:38:03.914Z,27.30
2023-11-12T00:40:33.856Z,25.10
2023-11-12T00:43:03.554Z,23.90
2023-11-12T00:45:32.058Z,23.33
2023-11-12T00:48:00.279Z,21.73
2023-11-12T00:50:28.280Z,20.27
2023-11-12T00:52:56.242Z,22.80
2023-11-12T00:55:24.406Z,20.07
2023-11-12T00:57:52.312Z,20.10
2023-11-12T01:00:22.292Z,19.13
2023-11-12T01:02:50.409Z,23.08
2023-11-12T01:05:18.772Z,20.93
2023-11-12T01:07:46.744Z,20.90
2023-11-12T01:10:15.025Z,19.63
2023-11-12T01:12:43.213Z,24.30
2023-11-12T01:15:11.560Z,18.43
2023-11-12T01:17:41.083Z,15.03
2023-11-12T01:20:11.596Z,12.50
2023-11-12T01:22:39.601Z,11.53
2023-11-12T01:25:08.681Z,10.53
2023-11-12T01:27:36.854Z,11.93
2023-11-12T01:30:05.328Z,13.10
2023-11-12T01:32:35.130Z,12.80
2023-11-12T01:35:06.334Z,12.15
2023-11-12T01:37:34.315Z,11.03
2023-11-12T01:40:02.547Z,9.83
2023-11-12T01:42:30.544Z,7.57
2023-11-12T01:44:58.477Z,6.83
2023-11-12T01:47:27.088Z,6.60
2023-11-12T01:49:55.258Z,6.60
2023-11-12T01:52:25.130Z,6.50
2023-11-12T01:54:54.094Z,6.07
2023-11-12T01:57:24.771Z,5.50
2023-11-12T01:59:53.121Z,5.97
2023-11-12T02:02:22.192Z,6.17
2023-11-12T02:04:50.906Z,7.00
2023-11-12T02:07:20.510Z,10.47
2023-11-12T02:09:56.335Z,6.53
2023-11-12T02:12:24.436Z,6.47
2023-11-12T02:14:52.980Z,7.43
2023-11-12T02:17:21.031Z,7.93
2023-11-12T02:19:48.966Z,7.57
2023-11-12T02:22:17.103Z,7.60
2023-11-12T02:24:47.052Z,7.97
2023-11-12T02:27:15.073Z,5.75
2023-11-12T02:29:49.412Z,5.27
2023-11-12T02:32:19.548Z,6.73
2023-11-12T02:34:47.687Z,7.32
2023-11-12T02:37:16.274Z,6.40
2023-11-12T02:39:44.198Z,5.00
2023-11-12T02:42:14.148Z,5.13
2023-11-12T02:44:43.402Z,7.45
2023-11-12T02:47:11.641Z,4.13
2023-11-12T02:49:52.775Z,7.57
2023-11-12T02:52:20.651Z,4.30
2023-11-12T02:54:48.827Z,6.10
2023-11-12T02:57:22.388Z,4.57
2023-11-12T02:59:51.164Z,4.47
2023-11-12T03:02:19.213Z,4.87
2023-11-12T03:04:48.812Z,3.03
2023-11-12T03:07:16.852Z,6.00
2023-11-12T03:09:44.870Z,3.40
2023-11-12T03:12:13.047Z,3.80
2023-11-12T03:14:44.285Z,2.90
2023-11-12T03:17:12.411Z,3.77
2023-11-12T03:19:43.100Z,2.20
2023-11-12T03:22:11.156Z,2.70
2023-11-12T03:24:39.151Z,1.80
2023-11-12T03:27:09.513Z,1.60
2023-11-12T03:32:06.935Z,2.60
2023-11-12T03:34:35.056Z,3.00
2023-11-12T03:37:02.996Z,3.23
2023-11-12T03:39:30.995Z,4.70
2023-11-12T03:41:59.648Z,2.43
2023-11-12T03:44:27.588Z,2.17
2023-11-12T03:46:55.731Z,4.00
2023-11-12T03:49:25.263Z,3.77
2023-11-12T03:51:53.479Z,4.95
2023-11-12T03:54:21.393Z,2.40
2023-11-12T03:56:49.725Z,3.17
2023-11-12T03:59:17.821Z,1.97
2023-11-12T04:01:46.742Z,2.30
2023-11-12T04:04:15.015Z,2.30
2023-11-12T04:06:44.407Z,2.00
2023-11-12T04:09:13.101Z,2.13
2023-11-12T04:11:41.976Z,3.00
2023-11-12T04:14:10.220Z,2.60
2023-11-12T04:16:38.186Z,4.53
2023-11-12T04:19:06.292Z,1.90
2023-11-12T04:21:34.397Z,2.97
2023-11-12T04:24:03.722Z,2.93
2023-11-12T04:26:32.505Z,2.77
2023-11-12T04:29:04.337Z,2.83
2023-11-12T04:31:32.318Z,2.60
2023-11-12T04:34:00.386Z,2.90
2023-11-12T04:36:28.623Z,2.33
2023-11-12T04:38:58.499Z,2.13
2023-11-12T04:41:28.915Z,2.58
2023-11-12T04:46:26.506Z,3.70
2023-11-12T04:48:54.564Z,3.50
2023-11-12T04:51:22.907Z,2.70
2023-11-12T04:53:50.828Z,3.73
2023-11-12T04:56:19.729Z,3.03
2023-11-12T04:58:49.220Z,3.40
2023-11-12T05:01:17.483Z,3.83
2023-11-12T05:03:46.328Z,4.70
2023-11-12T05:06:15.425Z,3.93
2023-11-12T05:08:43.836Z,5.80
2023-11-12T05:11:11.976Z,8.83
2023-11-12T05:13:39.934Z,5.30
2023-11-12T05:16:09.770Z,5.00
2023-11-12T05:18:37.952Z,3.90
2023-11-12T05:21:07.548Z,3.57
2023-11-12T05:23:35.898Z,5.40
2023-11-12T05:26:04.050Z,3.93
2023-11-12T05:28:32.303Z,4.90
2023-11-12T05:31:00.381Z,4.70
2023-11-12T05:33:29.841Z,3.77
2023-11-12T05:36:00.556Z,5.10
2023-11-12T05:38:28.534Z,4.97
2023-11-12T05:40:56.623Z,3.90
2023-11-12T05:43:24.508Z,8.00
2023-11-12T05:45:52.782Z,4.57
2023-11-12T05:48:20.778Z,5.47
2023-11-12T05:50:50.138Z,3.40
2023-11-12T05:53:18.112Z,4.27
2023-11-12T05:55:46.128Z,4.13
2023-11-12T05:58:14.523Z,3.07
2023-11-12T06:00:42.549Z,7.50
2023-11-12T06:03:10.638Z,5.00
2023-11-12T06:05:38.644Z,8.60
2023-11-12T06:08:08.055Z,4.07
2023-11-12T06:10:36.677Z,2.92
2023-11-12T06:13:05.704Z,4.20
2023-11-12T06:15:33.741Z,4.83
2023-11-12T06:18:01.816Z,3.53
2023-11-12T06:20:30.011Z,4.30
2023-11-12T06:23:00.274Z,3.47
2023-11-12T06:25:29.867Z,4.20
2023-11-12T06:27:57.893Z,2.25
2023-11-12T06:30:27.788Z,2.30
2023-11-12T06:32:55.880Z,2.95
2023-11-12T06:35:23.929Z,3.50
2023-11-12T06:37:51.963Z,1.97
2023-11-12T06:40:20.113Z,3.57
2023-11-12T06:42:49.414Z,4.80
2023-11-12T06:45:17.685Z,3.73
2023-11-12T06:47:45.769Z,3.17
2023-11-12T06:50:14.197Z,3.93
2023-11-12T06:52:42.275Z,3.30
2023-11-12T06:55:11.272Z,4.67
2023-11-12T06:57:39.278Z,2.67
2023-11-12T07:00:10.644Z,4.13
2023-11-12T07:02:39.370Z,2.30
2023-11-12T07:05:08.098Z,1.90
2023-11-12T07:07:36.020Z,3.10
2023-11-12T07:10:04.941Z,2.03
2023-11-12T07:12:33.066Z,3.60
2023-11-12T07:15:01.305Z,3.00
2023-11-12T07:17:32.196Z,1.67
2023-11-12T07:20:01.231Z,2.43
2023-11-12T07:22:29.581Z,4.50
2023-11-12T07:24:58.399Z,2.33
2023-11-12T07:29:55.892Z,2.50
2023-11-12T07:32:23.971Z,2.30
2023-11-12T07:34:53.506Z,1.93
2023-11-12T07:37:21.751Z,2.10
2023-11-12T07:39:49.900Z,2.03
2023-11-12T07:42:18.946Z,1.20
2023-11-12T07:44:50.111Z,1.40
2023-11-12T07:47:18.226Z,2.17
2023-11-12T07:49:46.218Z,1.00
2023-11-12T07:52:15.510Z,1.10
2023-11-12T07:54:43.760Z,1.17
2023-11-12T07:57:11.761Z,1.53
2023-11-12T07:59:39.661Z,1.20
2023-11-12T08:02:07.702Z,1.53
2023-11-12T08:04:35.682Z,2.53
2023-11-12T08:07:03.726Z,3.17
2023-11-12T08:09:33.120Z,1.73
2023-11-12T08:12:01.317Z,1.37
2023-11-12T08:14:29.287Z,1.47
2023-11-12T08:16:57.311Z,3.33
2023-11-12T08:19:26.234Z,1.67
2023-11-12T08:21:54.219Z,2.30
2023-11-12T08:24:22.594Z,1.33
2023-11-12T08:26:51.887Z,1.00
2023-11-12T08:29:20.092Z,1.00
2023-11-12T08:31:48.133Z,1.17
2023-11-12T08:34:16.030Z,1.77
2023-11-12T08:36:44.195Z,1.40
2023-11-12T08:39:14.485Z,1.43
2023-11-12T08:44:14.452Z,1.67
2023-11-12T08:46:42.445Z,1.63
2023-11-12T08:49:10.370Z,1.83
2023-11-12T08:51:38.710Z,1.13
2023-11-12T08:54:07.955Z,1.93
2023-11-12T08:56:36.029Z,3.97
2023-11-12T08:59:04.612Z,2.40
2023-11-12T09:01:36.905Z,1.60
2023-11-12T09:04:05.362Z,2.00
2023-11-12T09:06:33.351Z,3.47
2023-11-12T09:09:05.402Z,3.27
2023-11-12T09:11:33.903Z,1.90
2023-11-12T09:14:05.051Z,1.50
2023-11-12T09:16:33.645Z,1.73
2023-11-12T09:19:03.979Z,2.50
2023-11-12T09:24:01.471Z,1.90
2023-11-12T09:26:29.484Z,4.33
2023-11-12T09:28:57.472Z,3.10
2023-11-12T09:31:27.423Z,2.97
2023-11-12T09:33:55.518Z,2.72
2023-11-12T09:36:25.500Z,2.47
2023-11-12T09:38:53.488Z,3.33
2023-11-12T09:41:23.969Z,2.03
2023-11-12T09:43:54.439Z,1.73
2023-11-12T09:46:23.934Z,2.03
2023-11-12T09:48:53.503Z,2.10
2023-11-12T09:51:23.317Z,2.25
2023-11-12T09:53:54.933Z,1.67
2023-11-12T09:56:25.733Z,1.80
2023-11-12T09:58:54.783Z,1.80
2023-11-12T10:01:24.053Z,4.00
2023-11-12T10:03:53.125Z,2.50
2023-11-12T10:06:23.576Z,2.87
2023-11-12T10:08:53.141Z,4.35
2023-11-12T10:11:24.069Z,5.20
2023-11-12T10:13:53.373Z,3.90
2023-11-12T10:16:30.927Z,4.30
2023-11-12T10:19:12.866Z,4.80
2023-11-12T10:21:57.658Z,3.87
2023-11-12T10:24:29.716Z,4.37
2023-11-12T10:26:59.561Z,5.30
2023-11-12T10:29:29.275Z,4.37
2023-11-12T10:31:57.967Z,5.13
2023-11-12T10:34:28.932Z,4.70
2023-11-12T10:37:04.735Z,5.17
2023-11-12T10:39:38.376Z,5.00
2023-11-12T10:42:06.486Z,5.87
2023-11-12T10:44:36.036Z,7.63
2023-11-12T10:47:08.478Z,6.80
2023-11-12T10:49:40.743Z,7.00
2023-11-12T10:52:09.561Z,7.73
2023-11-12T10:54:40.593Z,8.03
2023-11-12T10:57:09.082Z,11.33
2023-11-12T10:59:38.699Z,8.93
2023-11-12T11:02:08.779Z,12.52
2023-11-12T11:04:36.860Z,14.68
2023-11-12T11:07:05.044Z,10.13
2023-11-12T11:09:33.060Z,10.23
2023-11-12T11:12:02.593Z,11.57
2023-11-12T11:14:30.588Z,9.73
2023-11-12T11:16:59.112Z,14.57
2023-11-12T11:19:57.181Z,19.37
2023-11-12T11:22:27.716Z,11.97
2023-11-12T11:24:56.578Z,9.80
2023-11-12T11:27:27.155Z,8.83
2023-11-12T11:30:12.265Z,9.70
2023-11-12T11:32:59.002Z,8.80
2023-11-12T11:35:27.927Z,9.87
2023-11-12T11:38:14.786Z,9.13
2023-11-12T11:40:46.122Z,9.70
2023-11-12T11:43:34.046Z,10.07
2023-11-12T11:46:09.458Z,10.20
2023-11-12T11:48:38.744Z,7.60
2023-11-12T11:51:44.519Z,8.80
2023-11-12T11:54:16.466Z,7.73
2023-11-12T11:56:44.510Z,6.93
2023-11-12T11:59:14.867Z,6.10
2023-11-12T12:04:16.427Z,11.10
2023-11-12T12:06:45.626Z,9.87
2023-11-12T12:09:18.610Z,10.93
2023-11-12T12:11:47.725Z,9.40
2023-11-12T12:14:17.606Z,7.33
2023-11-12T12:16:47.254Z,7.20
2023-11-12T12:19:19.437Z,5.40
2023-11-12T12:21:49.199Z,6.37
2023-11-12T12:24:18.549Z,5.55
2023-11-12T12:26:49.335Z,5.47
2023-11-12T12:29:21.673Z,4.90
2023-11-12T12:31:50.875Z,3.97
2023-11-12T12:34:20.338Z,4.87
2023-11-12T12:37:06.573Z,5.13
2023-11-12T12:40:00.688Z,3.63
2023-11-12T12:42:29.984Z,4.53
2023-11-12T12:44:59.582Z,4.87
2023-11-12T12:47:35.967Z,3.83
2023-11-12T12:50:17.362Z,4.80
2023-11-12T12:52:46.991Z,4.33
2023-11-12T12:55:17.748Z,3.42
2023-11-12T12:57:51.503Z,3.90
2023-11-12T13:00:23.249Z,4.30
2023-11-12T13:02:53.062Z,2.83
2023-11-12T13:05:23.135Z,3.85
2023-11-12T13:07:52.739Z,3.90
2023-11-12T13:10:23.670Z,4.55
2023-11-12T13:12:52.930Z,5.70
2023-11-12T13:15:23.258Z,6.00
2023-11-12T13:17:51.513Z,6.50
2023-11-12T13:20:25.749Z,7.50
2023-11-12T13:22:54.252Z,6.43
2023-11-12T13:25:22.699Z,6.83
2023-11-12T13:27:51.095Z,7.13
2023-11-12T13:30:20.864Z,6.00
2023-11-12T13:32:50.672Z,7.35
2023-11-12T13:35:18.924Z,6.47
2023-11-12T13:37:47.439Z,7.97
2023-11-12T13:40:16.204Z,8.37
2023-11-12T13:42:44.969Z,6.63
2023-11-12T13:45:13.610Z,7.30
2023-11-12T13:47:41.707Z,7.53
2023-11-12T13:50:41.343Z,10.13
2023-11-12T13:53:13.150Z,14.95
2023-11-12T13:55:42.778Z,9.23
2023-11-12T13:58:13.011Z,10.20
2023-11-12T14:00:43.561Z,8.93
2023-11-12T14:03:12.256Z,8.00
2023-11-12T14:05:44.450Z,10.40
2023-11-12T14:08:13.488Z,8.93
2023-11-12T14:10:41.783Z,9.00
2023-11-12T14:13:11.009Z,25.47
2023-11-12T14:15:40.477Z,8.47
2023-11-12T14:18:08.869Z,11.15
2023-11-12T14:20:36.794Z,16.03
2023-11-12T14:23:07.973Z,12.93
2023-11-12T14:25:35.897Z,16.97
2023-11-12T14:28:04.692Z,7.23
2023-11-12T14:30:38.268Z,10.10
2023-11-12T14:33:07.419Z,8.63
2023-11-12T14:35:36.010Z,9.60
2023-11-12T14:38:05.459Z,11.97
2023-11-12T14:40:33.384Z,7.55
2023-11-12T14:43:02.024Z,10.63
2023-11-12T14:45:31.405Z,10.80
2023-11-12T14:48:00.949Z,7.00
2023-11-12T14:50:30.172Z,7.20
2023-11-12T14:52:59.164Z,10.97
2023-11-12T14:55:28.799Z,8.17
2023-11-12T14:57:57.657Z,7.78
2023-11-12T15:00:30.572Z,7.57
2023-11-12T15:03:00.015Z,6.47
2023-11-12T15:05:28.512Z,6.07
2023-11-12T15:07:56.544Z,5.40
2023-11-12T15:10:24.877Z,6.10
2023-11-12T15:12:54.292Z,6.70
2023-11-12T15:15:23.002Z,12.73
2023-11-12T15:17:53.200Z,8.70
2023-11-12T15:20:21.948Z,8.33
2023-11-12T15:22:52.117Z,7.90
2023-11-12T15:25:21.264Z,9.03
2023-11-12T15:27:50.971Z,8.73
2023-11-12T15:30:21.245Z,8.48
2023-11-12T15:32:50.083Z,9.23
2023-11-12T15:35:19.611Z,10.47
2023-11-12T15:37:47.833Z,9.95
2023-11-12T15:40:19.330Z,9.27
2023-11-12T15:42:49.991Z,11.10
2023-11-12T15:45:20.465Z,10.73
2023-11-12T15:47:49.381Z,10.03
2023-11-12T15:50:18.440Z,10.20
2023-11-12T15:52:46.987Z,8.87
2023-11-12T15:55:15.827Z,8.77
2023-11-12T15:57:43.996Z,12.27
2023-11-12T16:00:14.832Z,11.50
2023-11-12T16:02:45.765Z,10.23
2023-11-12T16:07:43.282Z,10.00
2023-11-12T16:10:12.200Z,10.93
2023-11-12T16:12:40.949Z,9.93
2023-11-12T16:15:13.585Z,11.27
2023-11-12T16:17:43.374Z,10.87
2023-11-12T16:20:14.421Z,8.70
2023-11-12T16:22:42.597Z,11.07
2023-11-12T16:25:11.111Z,9.60
2023-11-12T16:27:39.398Z,8.80
2023-11-12T16:30:09.222Z,11.23
2023-11-12T16:32:37.974Z,8.73
2023-11-12T16:35:06.836Z,17.37
2023-11-12T16:37:36.119Z,16.93
2023-11-12T16:40:05.030Z,9.70
2023-11-12T16:42:33.105Z,19.60
2023-11-12T16:45:00.967Z,17.77
2023-11-12T16:47:29.920Z,13.30
2023-11-12T16:49:58.205Z,21.40
2023-11-12T16:52:26.141Z,10.30
2023-11-12T16:54:56.155Z,9.07
2023-11-12T16:57:24.166Z,9.32
2023-11-12T16:59:52.077Z,6.53
2023-11-12T17:02:21.941Z,7.37
2023-11-12T17:04:50.664Z,5.57
2023-11-12T17:07:18.711Z,7.00
2023-11-12T17:09:47.138Z,6.20
2023-11-12T17:12:16.689Z,5.33
2023-11-12T17:14:45.403Z,4.93
2023-11-12T17:17:13.536Z,4.57
2023-11-12T17:19:41.497Z,5.20
2023-11-12T17:22:09.584Z,5.10
2023-11-12T17:24:38.247Z,6.00
2023-11-12T17:27:07.676Z,5.23
2023-11-12T17:29:36.966Z,5.90
2023-11-12T17:32:05.067Z,4.33
2023-11-12T17:34:33.259Z,3.90
2023-11-12T17:37:01.251Z,3.37
2023-11-12T17:39:29.396Z,3.87
2023-11-12T17:41:58.840Z,3.27
2023-11-12T17:44:26.771Z,3.90
2023-11-12T17:46:58.325Z,3.43
2023-11-12T17:49:26.378Z,3.60
2023-11-12T17:51:54.295Z,8.20
2023-11-12T17:54:22.432Z,3.83
2023-11-12T17:56:50.402Z,4.07
2023-11-12T17:59:18.324Z,4.60
2023-11-12T18:01:47.893Z,3.50
2023-11-12T18:04:17.763Z,2.15
2023-11-12T18:06:46.812Z,2.10
2023-11-12T18:09:16.822Z,2.60
2023-11-12T18:11:46.380Z,2.53
2023-11-12T18:14:16.309Z,3.10
2023-11-12T18:16:46.016Z,2.03
2023-11-12T18:19:14.789Z,1.42
2023-11-12T18:21:44.521Z,1.50
2023-11-12T18:24:12.689Z,2.30
2023-11-12T18:26:41.045Z,2.83
2023-11-12T18:29:09.024Z,4.43
2023-11-12T18:31:38.639Z,6.07
2023-11-12T18:34:08.084Z,15.27
2023-11-12T18:36:36.026Z,10.50
2023-11-12T18:39:07.017Z,6.27
2023-11-12T18:41:37.973Z,8.37
2023-11-12T18:44:07.149Z,5.57
2023-11-12T18:46:36.159Z,7.57
2023-11-12T18:49:04.265Z,3.63
2023-11-12T18:51:32.449Z,2.00
2023-11-12T18:54:00.996Z,2.70
2023-11-12T18:56:30.260Z,3.70
2023-11-12T18:58:58.300Z,3.00
2023-11-12T19:01:26.483Z,4.60
2023-11-12T19:03:54.535Z,7.40
2023-11-12T19:06:22.654Z,8.30
2023-11-12T19:08:50.775Z,3.43
2023-11-12T19:11:20.284Z,5.33
2023-11-12T19:13:52.455Z,3.65
2023-11-12T19:16:20.452Z,3.47
2023-11-12T19:18:49.608Z,2.27
2023-11-12T19:21:17.745Z,3.20
2023-11-12T19:23:45.777Z,2.80
2023-11-12T19:26:13.721Z,1.70
2023-11-12T19:28:42.030Z,1.63
2023-11-12T19:31:21.569Z,1.90
2023-11-12T19:33:57.481Z,1.97
2023-11-12T19:36:25.406Z,1.87
2023-11-12T19:38:53.376Z,2.97
2023-11-12T19:41:23.347Z,2.93
2023-11-12T19:43:52.257Z,2.25
2023-11-12T19:46:21.680Z,2.60
2023-11-12T19:48:53.409Z,4.82
2023-11-12T19:51:21.343Z,2.50
2023-11-12T19:53:49.257Z,3.90
2023-11-12T19:56:18.410Z,2.70
2023-11-12T19:58:47.845Z,3.40
2023-11-12T20:01:15.955Z,4.47
2023-11-12T20:03:46.610Z,3.60
2023-11-12T20:06:14.874Z,3.97
2023-11-12T20:08:42.933Z,6.20
2023-11-12T20:11:14.555Z,5.00
2023-11-12T20:13:42.481Z,6.57
2023-11-12T20:16:10.878Z,6.07
2023-11-12T20:18:39.509Z,5.80
2023-11-12T20:21:10.797Z,6.23
2023-11-12T20:23:39.103Z,7.83
2023-11-12T20:26:08.129Z,6.03
2023-11-12T20:28:36.457Z,8.10
2023-11-12T20:31:06.158Z,7.80
2023-11-12T20:33:34.340Z,5.32
2023-11-12T20:36:02.770Z,5.43
2023-11-12T20:38:35.981Z,12.17
2023-11-12T20:41:06.209Z,6.10
2023-11-12T20:43:36.549Z,6.70
2023-11-12T20:48:38.501Z,5.33
2023-11-12T20:51:06.743Z,5.60
2023-11-12T20:53:36.124Z,7.27
2023-11-12T20:56:04.028Z,6.37
2023-11-12T20:58:35.496Z,6.47
2023-11-12T21:01:03.889Z,7.57
2023-11-12T21:03:33.853Z,9.93
2023-11-12T21:06:02.112Z,10.73
2023-11-12T21:08:30.217Z,6.70
2023-11-12T21:10:59.830Z,10.87
2023-11-12T21:13:29.009Z,8.60
2023-11-12T21:15:57.789Z,9.07
2023-11-12T21:18:27.092Z,11.57
2023-11-12T21:20:55.200Z,13.20
2023-11-12T21:23:23.204Z,9.70
2023-11-12T21:25:53.312Z,8.70
2023-11-12T21:28:24.728Z,11.38
2023-11-12T21:30:53.287Z,12.00
2023-11-12T21:33:21.285Z,9.07
2023-11-12T21:35:55.105Z,11.20
2023-11-12T21:38:25.469Z,11.07
2023-11-12T21:43:22.853Z,7.53
2023-11-12T21:45:51.312Z,9.25
2023-11-12T21:48:21.431Z,6.77
2023-11-12T21:50:51.659Z,7.32
2023-11-12T21:53:23.193Z,6.50
2023-11-12T21:55:51.385Z,10.10
2023-11-12T21:58:19.741Z,8.30
2023-11-12T22:00:49.184Z,10.27
2023-11-12T22:03:17.346Z,7.07
2023-11-12T22:05:45.379Z,8.50
2023-11-12T22:08:15.097Z,8.57
2023-11-12T22:10:43.190Z,9.93
2023-11-12T22:13:11.422Z,8.57
2023-11-12T22:15:39.407Z,8.30
2023-11-12T22:18:08.854Z,7.93
2023-11-12T22:20:39.080Z,9.70
2023-11-12T22:23:07.201Z,8.40
2023-11-12T22:25:35.221Z,8.30
2023-11-12T22:28:03.560Z,9.93
2023-11-12T22:30:31.587Z,8.33
2023-11-12T22:32:59.541Z,7.80
2023-11-12T22:35:29.089Z,7.87
2023-11-12T22:37:57.049Z,9.45
2023-11-12T22:40:25.887Z,11.00
2023-11-12T22:42:54.100Z,9.13
2023-11-12T22:45:23.722Z,8.20
2023-11-12T22:47:52.039Z,5.25
2023-11-12T22:50:22.542Z,7.67
2023-11-12T22:52:52.181Z,5.47
2023-11-12T22:55:20.315Z,5.30
2023-11-12T22:57:48.552Z,5.70
2023-11-12T23:02:57.156Z,4.97
2023-11-12T23:05:25.229Z,4.90
2023-11-12T23:07:54.530Z,4.87
2023-11-12T23:10:49.512Z,8.00
2023-11-12T23:13:19.080Z,6.00
2023-11-12T23:15:47.221Z,5.30
2023-11-12T23:18:17.042Z,6.10
2023-11-12T23:20:52.267Z,5.20
2023-11-12T23:23:25.925Z,5.33
2023-11-12T23:25:54.577Z,6.15
2023-11-12T23:28:22.750Z,5.10
2023-11-12T23:30:50.779Z,4.77
2023-11-12T23:33:18.871Z,4.67
2023-11-12T23:35:48.361Z,7.77
2023-11-12T23:38:16.453Z,4.88
2023-11-12T23:40:46.381Z,7.07
2023-11-12T23:43:15.000Z,6.97
2023-11-12T23:45:43.333Z,7.73
2023-11-12T23:48:11.437Z,6.90
2023-11-12T23:50:39.591Z,5.67
2023-11-12T23:53:07.706Z,8.20
2023-11-12T23:55:35.564Z,7.47
2023-11-12T23:58:05.177Z,7.07
